sensor_id;sensor_type;location;lat;lon;timestamp;P1;durP1;ratioP1;P2;durP2;ratioP2
75820;SDS011;64454;51.984;9.838;2024-01-16T00:01:20;3.42;;;1.88;;
75820;SDS011;64454;51.984;9.838;2024-01-16T00:03:46;4.35;;;1.73;;
75820;SDS011;64454;51.984;9.838;2024-01-16T00:06:12;3.65;;;2.08;;
75820;SDS011;64454;51.984;9.838;2024-01-16T00:08:38;3.60;;;1.80;;
75820;SDS011;64454;51.984;9.838;2024-01-16T00:11:04;4.72;;;1.55;;
75820;SDS011;64454;51.984;9.838;2024-01-16T00:13:31;4.95;;;1.40;;
75820;SDS011;64454;51.984;9.838;2024-01-16T00:15:58;2.45;;;1.50;;
75820;SDS011;64454;51.984;9.838;2024-01-16T00:18:24;6.00;;;2.33;;
75820;SDS011;64454;51.984;9.838;2024-01-16T00:20:50;3.78;;;1.90;;
75820;SDS011;64454;51.984;9.838;2024-01-16T00:23:16;2.13;;;1.50;;
75820;SDS011;64454;51.984;9.838;2024-01-16T00:25:42;2.15;;;1.45;;
75820;SDS011;64454;51.984;9.838;2024-01-16T00:28:08;3.25;;;1.40;;
75820;SDS011;64454;51.984;9.838;2024-01-16T00:30:35;1.40;;;0.90;;
75820;SDS011;64454;51.984;9.838;2024-01-16T00:33:01;6.70;;;1.90;;
75820;SDS011;64454;51.984;9.838;2024-01-16T00:35:28;3.92;;;2.00;;
75820;SDS011;64454;51.984;9.838;2024-01-16T00:37:54;1.98;;;1.20;;
75820;SDS011;64454;51.984;9.838;2024-01-16T00:40:20;5.68;;;2.20;;
75820;SDS011;64454;51.984;9.838;2024-01-16T00:42:46;4.57;;;2.03;;
75820;SDS011;64454;51.984;9.838;2024-01-16T00:45:12;3.50;;;1.70;;
75820;SDS011;64454;51.984;9.838;2024-01-16T00:47:39;3.30;;;1.23;;
75820;SDS011;64454;51.984;9.838;2024-01-16T00:50:06;2.60;;;1.50;;
75820;SDS011;64454;51.984;9.838;2024-01-16T00:52:34;3.80;;;1.80;;
75820;SDS011;64454;51.984;9.838;2024-01-16T00:55:00;2.60;;;1.40;;
75820;SDS011;64454;51.984;9.838;2024-01-16T00:57:26;3.90;;;2.10;;
75820;SDS011;64454;51.984;9.838;2024-01-16T00:59:52;5.18;;;1.90;;
75820;SDS011;64454;51.984;9.838;2024-01-16T01:02:18;3.10;;;1.40;;
75820;SDS011;64454;51.984;9.838;2024-01-16T01:04:45;2.83;;;1.40;;
75820;SDS011;64454;51.984;9.838;2024-01-16T01:07:12;2.30;;;1.00;;
75820;SDS011;64454;51.984;9.838;2024-01-16T01:09:39;6.78;;;1.33;;
75820;SDS011;64454;51.984;9.838;2024-01-16T01:12:05;2.70;;;1.52;;
75820;SDS011;64454;51.984;9.838;2024-01-16T01:14:32;4.95;;;1.50;;
75820;SDS011;64454;51.984;9.838;2024-01-16T01:16:58;2.85;;;1.10;;
75820;SDS011;64454;51.984;9.838;2024-01-16T01:19:25;5.18;;;1.92;;
75820;SDS011;64454;51.984;9.838;2024-01-16T01:21:51;3.85;;;2.00;;
75820;SDS011;64454;51.984;9.838;2024-01-16T01:24:18;7.43;;;1.90;;
75820;SDS011;64454;51.984;9.838;2024-01-16T01:26:44;5.30;;;1.90;;
75820;SDS011;64454;51.984;9.838;2024-01-16T01:29:10;3.47;;;1.70;;
75820;SDS011;64454;51.984;9.838;2024-01-16T01:31:36;5.10;;;1.40;;
75820;SDS011;64454;51.984;9.838;2024-01-16T01:34:02;4.22;;;1.52;;
75820;SDS011;64454;51.984;9.838;2024-01-16T01:36:29;3.88;;;1.50;;
75820;SDS011;64454;51.984;9.838;2024-01-16T01:38:56;8.05;;;1.83;;
75820;SDS011;64454;51.984;9.838;2024-01-16T01:41:22;5.18;;;1.90;;
75820;SDS011;64454;51.984;9.838;2024-01-16T01:43:48;6.93;;;2.00;;
75820;SDS011;64454;51.984;9.838;2024-01-16T01:46:15;4.70;;;1.80;;
75820;SDS011;64454;51.984;9.838;2024-01-16T01:48:45;7.50;;;2.20;;
75820;SDS011;64454;51.984;9.838;2024-01-16T01:51:13;11.98;;;2.90;;
75820;SDS011;64454;51.984;9.838;2024-01-16T01:53:43;5.50;;;2.40;;
75820;SDS011;64454;51.984;9.838;2024-01-16T01:56:11;8.18;;;1.58;;
75820;SDS011;64454;51.984;9.838;2024-01-16T01:58:43;4.65;;;1.48;;
75820;SDS011;64454;51.984;9.838;2024-01-16T02:01:15;7.32;;;2.67;;
75820;SDS011;64454;51.984;9.838;2024-01-16T02:03:44;4.15;;;2.03;;
75820;SDS011;64454;51.984;9.838;2024-01-16T02:06:12;4.63;;;2.10;;
75820;SDS011;64454;51.984;9.838;2024-01-16T02:08:40;3.90;;;1.83;;
75820;SDS011;64454;51.984;9.838;2024-01-16T02:11:07;7.28;;;2.10;;
75820;SDS011;64454;51.984;9.838;2024-01-16T02:13:34;4.17;;;1.77;;
75820;SDS011;64454;51.984;9.838;2024-01-16T02:16:00;7.00;;;1.90;;
75820;SDS011;64454;51.984;9.838;2024-01-16T02:18:28;4.20;;;1.63;;
75820;SDS011;64454;51.984;9.838;2024-01-16T02:20:54;4.80;;;1.65;;
75820;SDS011;64454;51.984;9.838;2024-01-16T02:23:27;5.78;;;2.03;;
75820;SDS011;64454;51.984;9.838;2024-01-16T02:25:54;5.60;;;2.30;;
75820;SDS011;64454;51.984;9.838;2024-01-16T02:28:20;5.15;;;2.00;;
75820;SDS011;64454;51.984;9.838;2024-01-16T02:30:46;5.53;;;1.80;;
75820;SDS011;64454;51.984;9.838;2024-01-16T02:33:12;4.10;;;1.10;;
75820;SDS011;64454;51.984;9.838;2024-01-16T02:35:39;3.53;;;1.58;;
75820;SDS011;64454;51.984;9.838;2024-01-16T02:38:05;5.67;;;1.80;;
75820;SDS011;64454;51.984;9.838;2024-01-16T02:40:31;5.72;;;1.88;;
75820;SDS011;64454;51.984;9.838;2024-01-16T02:42:57;4.25;;;1.80;;
75820;SDS011;64454;51.984;9.838;2024-01-16T02:45:24;3.20;;;1.50;;
75820;SDS011;64454;51.984;9.838;2024-01-16T02:47:50;3.90;;;1.50;;
75820;SDS011;64454;51.984;9.838;2024-01-16T02:50:17;3.90;;;1.83;;
75820;SDS011;64454;51.984;9.838;2024-01-16T02:52:45;7.70;;;2.90;;
75820;SDS011;64454;51.984;9.838;2024-01-16T02:55:11;6.60;;;1.80;;
75820;SDS011;64454;51.984;9.838;2024-01-16T02:57:38;4.07;;;1.80;;
75820;SDS011;64454;51.984;9.838;2024-01-16T03:00:05;4.72;;;1.85;;
75820;SDS011;64454;51.984;9.838;2024-01-16T03:02:33;5.18;;;1.80;;
75820;SDS011;64454;51.984;9.838;2024-01-16T03:04:59;3.70;;;1.50;;
75820;SDS011;64454;51.984;9.838;2024-01-16T03:07:29;3.92;;;1.50;;
75820;SDS011;64454;51.984;9.838;2024-01-16T03:09:55;3.13;;;1.27;;
75820;SDS011;64454;51.984;9.838;2024-01-16T03:12:21;3.10;;;1.85;;
75820;SDS011;64454;51.984;9.838;2024-01-16T03:14:48;2.40;;;1.70;;
75820;SDS011;64454;51.984;9.838;2024-01-16T03:17:14;5.05;;;1.30;;
75820;SDS011;64454;51.984;9.838;2024-01-16T03:19:40;5.05;;;1.90;;
75820;SDS011;64454;51.984;9.838;2024-01-16T03:22:08;4.15;;;1.30;;
75820;SDS011;64454;51.984;9.838;2024-01-16T03:24:34;5.80;;;1.80;;
75820;SDS011;64454;51.984;9.838;2024-01-16T03:27:01;4.30;;;2.00;;
75820;SDS011;64454;51.984;9.838;2024-01-16T03:29:27;7.05;;;2.50;;
75820;SDS011;64454;51.984;9.838;2024-01-16T03:31:54;3.30;;;1.90;;
75820;SDS011;64454;51.984;9.838;2024-01-16T03:34:20;5.78;;;2.00;;
75820;SDS011;64454;51.984;9.838;2024-01-16T03:36:46;7.05;;;1.95;;
75820;SDS011;64454;51.984;9.838;2024-01-16T03:39:12;6.17;;;2.30;;
75820;SDS011;64454;51.984;9.838;2024-01-16T03:41:39;5.57;;;2.00;;
75820;SDS011;64454;51.984;9.838;2024-01-16T03:44:05;4.00;;;1.60;;
75820;SDS011;64454;51.984;9.838;2024-01-16T03:46:31;3.67;;;1.40;;
75820;SDS011;64454;51.984;9.838;2024-01-16T03:48:58;5.53;;;2.15;;
75820;SDS011;64454;51.984;9.838;2024-01-16T03:51:24;5.85;;;1.80;;
75820;SDS011;64454;51.984;9.838;2024-01-16T03:53:50;8.95;;;2.05;;
75820;SDS011;64454;51.984;9.838;2024-01-16T03:56:16;8.38;;;2.80;;
75820;SDS011;64454;51.984;9.838;2024-01-16T03:58:42;3.90;;;1.58;;
75820;SDS011;64454;51.984;9.838;2024-01-16T04:01:09;5.00;;;1.45;;
75820;SDS011;64454;51.984;9.838;2024-01-16T04:03:35;5.53;;;1.60;;
75820;SDS011;64454;51.984;9.838;2024-01-16T04:06:02;3.10;;;2.00;;
75820;SDS011;64454;51.984;9.838;2024-01-16T04:08:28;6.97;;;2.90;;
75820;SDS011;64454;51.984;9.838;2024-01-16T04:10:54;5.47;;;2.35;;
75820;SDS011;64454;51.984;9.838;2024-01-16T04:13:20;7.20;;;2.10;;
75820;SDS011;64454;51.984;9.838;2024-01-16T04:15:46;5.30;;;2.75;;
75820;SDS011;64454;51.984;9.838;2024-01-16T04:18:12;6.78;;;2.47;;
75820;SDS011;64454;51.984;9.838;2024-01-16T04:20:38;6.23;;;3.00;;
75820;SDS011;64454;51.984;9.838;2024-01-16T04:23:05;4.60;;;2.13;;
75820;SDS011;64454;51.984;9.838;2024-01-16T04:25:31;6.00;;;2.35;;
75820;SDS011;64454;51.984;9.838;2024-01-16T04:27:57;7.35;;;2.20;;
75820;SDS011;64454;51.984;9.838;2024-01-16T04:30:23;5.53;;;2.30;;
75820;SDS011;64454;51.984;9.838;2024-01-16T04:32:49;5.95;;;2.08;;
75820;SDS011;64454;51.984;9.838;2024-01-16T04:35:15;8.27;;;1.90;;
75820;SDS011;64454;51.984;9.838;2024-01-16T04:37:42;3.42;;;1.80;;
75820;SDS011;64454;51.984;9.838;2024-01-16T04:40:09;4.28;;;2.20;;
75820;SDS011;64454;51.984;9.838;2024-01-16T04:42:36;2.20;;;1.60;;
75820;SDS011;64454;51.984;9.838;2024-01-16T04:45:02;5.35;;;2.53;;
75820;SDS011;64454;51.984;9.838;2024-01-16T04:47:29;4.50;;;2.30;;
75820;SDS011;64454;51.984;9.838;2024-01-16T04:49:56;7.32;;;2.03;;
75820;SDS011;64454;51.984;9.838;2024-01-16T04:52:22;4.88;;;2.00;;
75820;SDS011;64454;51.984;9.838;2024-01-16T04:54:48;6.18;;;1.92;;
75820;SDS011;64454;51.984;9.838;2024-01-16T04:57:15;4.80;;;2.50;;
75820;SDS011;64454;51.984;9.838;2024-01-16T04:59:41;7.80;;;2.00;;
75820;SDS011;64454;51.984;9.838;2024-01-16T05:02:07;3.17;;;1.73;;
75820;SDS011;64454;51.984;9.838;2024-01-16T05:04:36;4.23;;;1.57;;
75820;SDS011;64454;51.984;9.838;2024-01-16T05:07:03;5.70;;;1.92;;
75820;SDS011;64454;51.984;9.838;2024-01-16T05:09:29;7.68;;;2.40;;
75820;SDS011;64454;51.984;9.838;2024-01-16T05:11:55;5.35;;;2.42;;
75820;SDS011;64454;51.984;9.838;2024-01-16T05:14:22;7.07;;;2.55;;
75820;SDS011;64454;51.984;9.838;2024-01-16T05:16:50;8.57;;;2.90;;
75820;SDS011;64454;51.984;9.838;2024-01-16T05:19:16;4.13;;;2.45;;
75820;SDS011;64454;51.984;9.838;2024-01-16T05:21:42;17.25;;;2.65;;
75820;SDS011;64454;51.984;9.838;2024-01-16T05:24:08;6.47;;;2.00;;
75820;SDS011;64454;51.984;9.838;2024-01-16T05:26:34;8.00;;;2.10;;
75820;SDS011;64454;51.984;9.838;2024-01-16T05:29:00;6.10;;;2.30;;
75820;SDS011;64454;51.984;9.838;2024-01-16T05:31:27;7.68;;;2.15;;
75820;SDS011;64454;51.984;9.838;2024-01-16T05:33:53;2.90;;;1.80;;
75820;SDS011;64454;51.984;9.838;2024-01-16T05:36:19;2.70;;;1.60;;
75820;SDS011;64454;51.984;9.838;2024-01-16T05:38:46;4.30;;;1.73;;
75820;SDS011;64454;51.984;9.838;2024-01-16T05:41:12;5.85;;;2.15;;
75820;SDS011;64454;51.984;9.838;2024-01-16T05:43:39;4.60;;;2.33;;
75820;SDS011;64454;51.984;9.838;2024-01-16T05:46:05;2.78;;;1.80;;
75820;SDS011;64454;51.984;9.838;2024-01-16T05:48:31;4.57;;;2.05;;
75820;SDS011;64454;51.984;9.838;2024-01-16T05:50:58;5.70;;;2.10;;
75820;SDS011;64454;51.984;9.838;2024-01-16T05:53:24;6.37;;;2.10;;
75820;SDS011;64454;51.984;9.838;2024-01-16T05:55:50;4.70;;;2.30;;
75820;SDS011;64454;51.984;9.838;2024-01-16T05:58:16;3.95;;;2.00;;
75820;SDS011;64454;51.984;9.838;2024-01-16T06:00:42;6.85;;;2.10;;
75820;SDS011;64454;51.984;9.838;2024-01-16T06:03:08;3.25;;;1.60;;
75820;SDS011;64454;51.984;9.838;2024-01-16T06:05:35;6.57;;;2.30;;
75820;SDS011;64454;51.984;9.838;2024-01-16T06:08:01;4.80;;;2.22;;
75820;SDS011;64454;51.984;9.838;2024-01-16T06:10:28;3.35;;;1.80;;
75820;SDS011;64454;51.984;9.838;2024-01-16T06:12:54;4.60;;;2.20;;
75820;SDS011;64454;51.984;9.838;2024-01-16T06:15:20;4.45;;;2.55;;
75820;SDS011;64454;51.984;9.838;2024-01-16T06:17:46;5.82;;;2.10;;
75820;SDS011;64454;51.984;9.838;2024-01-16T06:20:12;5.40;;;2.75;;
75820;SDS011;64454;51.984;9.838;2024-01-16T06:22:39;4.57;;;2.65;;
75820;SDS011;64454;51.984;9.838;2024-01-16T06:25:05;4.35;;;2.08;;
75820;SDS011;64454;51.984;9.838;2024-01-16T06:27:32;4.10;;;2.40;;
75820;SDS011;64454;51.984;9.838;2024-01-16T06:29:58;5.40;;;2.20;;
75820;SDS011;64454;51.984;9.838;2024-01-16T06:32:24;5.07;;;2.10;;
75820;SDS011;64454;51.984;9.838;2024-01-16T06:34:50;5.50;;;2.50;;
75820;SDS011;64454;51.984;9.838;2024-01-16T06:37:16;5.88;;;2.50;;
75820;SDS011;64454;51.984;9.838;2024-01-16T06:39:43;4.80;;;2.80;;
75820;SDS011;64454;51.984;9.838;2024-01-16T06:42:09;7.23;;;2.80;;
75820;SDS011;64454;51.984;9.838;2024-01-16T06:44:35;4.35;;;2.63;;
75820;SDS011;64454;51.984;9.838;2024-01-16T06:47:01;5.97;;;2.75;;
75820;SDS011;64454;51.984;9.838;2024-01-16T06:49:27;3.88;;;2.60;;
75820;SDS011;64454;51.984;9.838;2024-01-16T06:51:54;5.00;;;2.63;;
75820;SDS011;64454;51.984;9.838;2024-01-16T06:54:20;3.83;;;2.40;;
75820;SDS011;64454;51.984;9.838;2024-01-16T06:56:47;2.70;;;2.40;;
75820;SDS011;64454;51.984;9.838;2024-01-16T06:59:14;6.40;;;2.40;;
75820;SDS011;64454;51.984;9.838;2024-01-16T07:01:41;4.50;;;2.40;;
75820;SDS011;64454;51.984;9.838;2024-01-16T07:04:07;6.78;;;2.70;;
75820;SDS011;64454;51.984;9.838;2024-01-16T07:06:33;4.63;;;2.42;;
75820;SDS011;64454;51.984;9.838;2024-01-16T07:08:59;7.37;;;3.27;;
75820;SDS011;64454;51.984;9.838;2024-01-16T07:11:25;11.68;;;3.30;;
75820;SDS011;64454;51.984;9.838;2024-01-16T07:13:52;5.88;;;2.30;;
75820;SDS011;64454;51.984;9.838;2024-01-16T07:16:18;6.03;;;2.72;;
75820;SDS011;64454;51.984;9.838;2024-01-16T07:18:44;6.10;;;2.20;;
75820;SDS011;64454;51.984;9.838;2024-01-16T07:21:16;4.70;;;2.10;;
75820;SDS011;64454;51.984;9.838;2024-01-16T07:23:43;7.05;;;2.90;;
75820;SDS011;64454;51.984;9.838;2024-01-16T07:26:09;5.00;;;2.53;;
75820;SDS011;64454;51.984;9.838;2024-01-16T07:28:36;4.53;;;2.28;;
75820;SDS011;64454;51.984;9.838;2024-01-16T07:31:02;7.40;;;2.90;;
75820;SDS011;64454;51.984;9.838;2024-01-16T07:33:29;7.82;;;2.60;;
75820;SDS011;64454;51.984;9.838;2024-01-16T07:35:55;4.35;;;2.50;;
75820;SDS011;64454;51.984;9.838;2024-01-16T07:38:21;5.30;;;2.40;;
75820;SDS011;64454;51.984;9.838;2024-01-16T07:40:47;4.72;;;2.85;;
75820;SDS011;64454;51.984;9.838;2024-01-16T07:43:13;3.63;;;2.30;;
75820;SDS011;64454;51.984;9.838;2024-01-16T07:45:39;6.15;;;2.50;;
75820;SDS011;64454;51.984;9.838;2024-01-16T07:48:06;6.00;;;3.00;;
75820;SDS011;64454;51.984;9.838;2024-01-16T07:50:33;4.07;;;2.22;;
75820;SDS011;64454;51.984;9.838;2024-01-16T07:52:59;4.72;;;2.53;;
75820;SDS011;64454;51.984;9.838;2024-01-16T07:55:25;2.85;;;2.20;;
75820;SDS011;64454;51.984;9.838;2024-01-16T07:57:53;5.57;;;2.60;;
75820;SDS011;64454;51.984;9.838;2024-01-16T08:00:20;5.93;;;3.60;;
75820;SDS011;64454;51.984;9.838;2024-01-16T08:02:47;5.38;;;2.90;;
75820;SDS011;64454;51.984;9.838;2024-01-16T08:05:14;3.83;;;2.20;;
75820;SDS011;64454;51.984;9.838;2024-01-16T08:07:42;5.47;;;2.45;;
75820;SDS011;64454;51.984;9.838;2024-01-16T08:10:08;5.05;;;2.80;;
75820;SDS011;64454;51.984;9.838;2024-01-16T08:12:35;4.70;;;2.60;;
75820;SDS011;64454;51.984;9.838;2024-01-16T08:15:02;6.82;;;2.83;;
75820;SDS011;64454;51.984;9.838;2024-01-16T08:17:29;7.85;;;2.20;;
75820;SDS011;64454;51.984;9.838;2024-01-16T08:19:55;6.82;;;3.00;;
75820;SDS011;64454;51.984;9.838;2024-01-16T08:22:22;5.53;;;2.70;;
75820;SDS011;64454;51.984;9.838;2024-01-16T08:24:48;8.23;;;3.42;;
75820;SDS011;64454;51.984;9.838;2024-01-16T08:27:14;4.95;;;2.70;;
75820;SDS011;64454;51.984;9.838;2024-01-16T08:29:41;4.22;;;3.00;;
75820;SDS011;64454;51.984;9.838;2024-01-16T08:32:08;6.10;;;2.57;;
75820;SDS011;64454;51.984;9.838;2024-01-16T08:34:34;5.40;;;2.75;;
75820;SDS011;64454;51.984;9.838;2024-01-16T08:37:00;6.28;;;2.85;;
75820;SDS011;64454;51.984;9.838;2024-01-16T08:39:27;4.63;;;2.70;;
75820;SDS011;64454;51.984;9.838;2024-01-16T08:41:53;9.57;;;3.10;;
75820;SDS011;64454;51.984;9.838;2024-01-16T08:44:22;5.00;;;2.47;;
75820;SDS011;64454;51.984;9.838;2024-01-16T08:46:48;4.70;;;2.60;;
75820;SDS011;64454;51.984;9.838;2024-01-16T08:49:15;6.60;;;2.90;;
75820;SDS011;64454;51.984;9.838;2024-01-16T08:51:41;7.68;;;3.58;;
75820;SDS011;64454;51.984;9.838;2024-01-16T08:54:07;7.22;;;3.42;;
75820;SDS011;64454;51.984;9.838;2024-01-16T08:56:34;7.73;;;3.20;;
75820;SDS011;64454;51.984;9.838;2024-01-16T08:59:00;7.77;;;3.07;;
75820;SDS011;64454;51.984;9.838;2024-01-16T09:01:26;4.10;;;2.67;;
75820;SDS011;64454;51.984;9.838;2024-01-16T09:03:52;7.03;;;3.10;;
75820;SDS011;64454;51.984;9.838;2024-01-16T09:06:18;6.33;;;2.87;;
75820;SDS011;64454;51.984;9.838;2024-01-16T09:08:44;6.45;;;3.47;;
75820;SDS011;64454;51.984;9.838;2024-01-16T09:11:11;5.35;;;3.50;;
75820;SDS011;64454;51.984;9.838;2024-01-16T09:13:38;6.15;;;3.60;;
75820;SDS011;64454;51.984;9.838;2024-01-16T09:16:04;6.63;;;3.50;;
75820;SDS011;64454;51.984;9.838;2024-01-16T09:18:30;7.65;;;3.70;;
75820;SDS011;64454;51.984;9.838;2024-01-16T09:20:56;5.63;;;3.38;;
75820;SDS011;64454;51.984;9.838;2024-01-16T09:23:22;5.80;;;3.47;;
75820;SDS011;64454;51.984;9.838;2024-01-16T09:25:49;4.65;;;3.20;;
75820;SDS011;64454;51.984;9.838;2024-01-16T09:28:15;5.20;;;3.60;;
75820;SDS011;64454;51.984;9.838;2024-01-16T09:30:42;7.65;;;3.75;;
75820;SDS011;64454;51.984;9.838;2024-01-16T09:33:08;8.35;;;4.22;;
75820;SDS011;64454;51.984;9.838;2024-01-16T09:35:35;10.38;;;4.35;;
75820;SDS011;64454;51.984;9.838;2024-01-16T09:38:02;5.18;;;3.95;;
75820;SDS011;64454;51.984;9.838;2024-01-16T09:40:29;6.80;;;3.65;;
75820;SDS011;64454;51.984;9.838;2024-01-16T09:42:56;5.82;;;4.00;;
75820;SDS011;64454;51.984;9.838;2024-01-16T09:45:22;6.90;;;4.53;;
75820;SDS011;64454;51.984;9.838;2024-01-16T09:47:51;6.88;;;3.90;;
75820;SDS011;64454;51.984;9.838;2024-01-16T09:50:18;7.80;;;4.10;;
75820;SDS011;64454;51.984;9.838;2024-01-16T09:52:45;8.43;;;4.70;;
75820;SDS011;64454;51.984;9.838;2024-01-16T09:55:11;6.53;;;4.35;;
75820;SDS011;64454;51.984;9.838;2024-01-16T09:57:39;6.50;;;4.50;;
75820;SDS011;64454;51.984;9.838;2024-01-16T10:00:07;6.40;;;4.05;;
75820;SDS011;64454;51.984;9.838;2024-01-16T10:02:37;8.55;;;5.10;;
75820;SDS011;64454;51.984;9.838;2024-01-16T10:05:06;7.87;;;4.70;;
75820;SDS011;64454;51.984;9.838;2024-01-16T10:07:34;4.85;;;4.00;;
75820;SDS011;64454;51.984;9.838;2024-01-16T10:10:03;6.38;;;4.63;;
75820;SDS011;64454;51.984;9.838;2024-01-16T10:12:30;9.00;;;4.80;;
75820;SDS011;64454;51.984;9.838;2024-01-16T10:14:56;7.70;;;4.40;;
75820;SDS011;64454;51.984;9.838;2024-01-16T10:17:23;6.22;;;4.30;;
75820;SDS011;64454;51.984;9.838;2024-01-16T10:20:02;9.35;;;4.85;;
75820;SDS011;64454;51.984;9.838;2024-01-16T10:22:30;7.10;;;4.18;;
75820;SDS011;64454;51.984;9.838;2024-01-16T10:25:03;9.02;;;4.50;;
75820;SDS011;64454;51.984;9.838;2024-01-16T10:27:31;7.30;;;4.55;;
75820;SDS011;64454;51.984;9.838;2024-01-16T10:29:57;7.38;;;5.10;;
75820;SDS011;64454;51.984;9.838;2024-01-16T10:32:27;6.88;;;3.90;;
75820;SDS011;64454;51.984;9.838;2024-01-16T10:35:01;9.45;;;4.97;;
75820;SDS011;64454;51.984;9.838;2024-01-16T10:37:29;8.45;;;4.60;;
75820;SDS011;64454;51.984;9.838;2024-01-16T10:39:56;5.97;;;4.35;;
75820;SDS011;64454;51.984;9.838;2024-01-16T10:42:22;6.82;;;4.30;;
75820;SDS011;64454;51.984;9.838;2024-01-16T10:44:52;6.07;;;4.07;;
75820;SDS011;64454;51.984;9.838;2024-01-16T10:47:19;5.77;;;4.50;;
75820;SDS011;64454;51.984;9.838;2024-01-16T10:49:47;6.70;;;4.90;;
75820;SDS011;64454;51.984;9.838;2024-01-16T10:52:14;6.33;;;4.33;;
75820;SDS011;64454;51.984;9.838;2024-01-16T10:54:43;6.88;;;4.75;;
75820;SDS011;64454;51.984;9.838;2024-01-16T10:57:15;8.98;;;5.10;;
75820;SDS011;64454;51.984;9.838;2024-01-16T10:59:45;7.30;;;4.68;;
75820;SDS011;64454;51.984;9.838;2024-01-16T11:02:20;9.43;;;4.83;;
75820;SDS011;64454;51.984;9.838;2024-01-16T11:04:57;8.30;;;4.82;;
75820;SDS011;64454;51.984;9.838;2024-01-16T11:07:25;10.20;;;4.85;;
75820;SDS011;64454;51.984;9.838;2024-01-16T11:09:54;6.72;;;4.25;;
75820;SDS011;64454;51.984;9.838;2024-01-16T11:12:21;5.70;;;4.50;;
75820;SDS011;64454;51.984;9.838;2024-01-16T11:14:51;7.90;;;5.07;;
75820;SDS011;64454;51.984;9.838;2024-01-16T11:17:18;7.97;;;4.75;;
75820;SDS011;64454;51.984;9.838;2024-01-16T11:19:46;8.15;;;5.28;;
75820;SDS011;64454;51.984;9.838;2024-01-16T11:22:13;8.30;;;5.10;;
75820;SDS011;64454;51.984;9.838;2024-01-16T11:24:41;5.88;;;4.50;;
75820;SDS011;64454;51.984;9.838;2024-01-16T11:27:08;8.07;;;4.50;;
75820;SDS011;64454;51.984;9.838;2024-01-16T11:29:45;8.48;;;5.20;;
75820;SDS011;64454;51.984;9.838;2024-01-16T11:32:32;9.80;;;4.90;;
75820;SDS011;64454;51.984;9.838;2024-01-16T11:35:00;7.30;;;4.22;;
75820;SDS011;64454;51.984;9.838;2024-01-16T11:37:27;5.80;;;4.60;;
75820;SDS011;64454;51.984;9.838;2024-01-16T11:42:52;5.07;;;4.38;;
75820;SDS011;64454;51.984;9.838;2024-01-16T11:48:16;6.80;;;4.77;;
75820;SDS011;64454;51.984;9.838;2024-01-16T11:50:44;8.80;;;5.70;;
75820;SDS011;64454;51.984;9.838;2024-01-16T11:53:11;7.55;;;5.20;;
75820;SDS011;64454;51.984;9.838;2024-01-16T11:56:11;7.13;;;4.97;;
75820;SDS011;64454;51.984;9.838;2024-01-16T11:59:18;8.57;;;5.35;;
75820;SDS011;64454;51.984;9.838;2024-01-16T12:02:20;9.45;;;6.68;;
75820;SDS011;64454;51.984;9.838;2024-01-16T12:04:52;11.80;;;8.43;;
75820;SDS011;64454;51.984;9.838;2024-01-16T12:07:21;9.43;;;7.80;;
75820;SDS011;64454;51.984;9.838;2024-01-16T12:09:47;10.13;;;7.07;;
75820;SDS011;64454;51.984;9.838;2024-01-16T12:12:14;9.80;;;6.90;;
75820;SDS011;64454;51.984;9.838;2024-01-16T12:14:50;13.48;;;6.93;;
75820;SDS011;64454;51.984;9.838;2024-01-16T12:17:18;11.70;;;7.72;;
75820;SDS011;64454;51.984;9.838;2024-01-16T12:19:45;10.02;;;7.18;;
75820;SDS011;64454;51.984;9.838;2024-01-16T12:22:13;10.43;;;7.80;;
75820;SDS011;64454;51.984;9.838;2024-01-16T12:24:40;13.57;;;8.32;;
75820;SDS011;64454;51.984;9.838;2024-01-16T12:27:06;8.85;;;7.35;;
75820;SDS011;64454;51.984;9.838;2024-01-16T12:29:33;12.30;;;8.18;;
75820;SDS011;64454;51.984;9.838;2024-01-16T12:32:07;11.05;;;8.43;;
75820;SDS011;64454;51.984;9.838;2024-01-16T12:34:34;11.23;;;7.97;;
75820;SDS011;64454;51.984;9.838;2024-01-16T12:37:10;13.85;;;8.77;;
75820;SDS011;64454;51.984;9.838;2024-01-16T12:39:37;11.63;;;8.63;;
75820;SDS011;64454;51.984;9.838;2024-01-16T12:42:04;11.68;;;7.78;;
75820;SDS011;64454;51.984;9.838;2024-01-16T12:44:31;10.03;;;8.13;;
75820;SDS011;64454;51.984;9.838;2024-01-16T12:46:57;9.65;;;7.47;;
75820;SDS011;64454;51.984;9.838;2024-01-16T12:49:24;9.35;;;6.70;;
75820;SDS011;64454;51.984;9.838;2024-01-16T12:51:50;11.93;;;7.10;;
75820;SDS011;64454;51.984;9.838;2024-01-16T12:54:18;13.50;;;7.30;;
75820;SDS011;64454;51.984;9.838;2024-01-16T12:56:47;14.43;;;6.82;;
75820;SDS011;64454;51.984;9.838;2024-01-16T12:59:13;9.95;;;5.43;;
75820;SDS011;64454;51.984;9.838;2024-01-16T13:01:40;10.10;;;5.40;;
75820;SDS011;64454;51.984;9.838;2024-01-16T13:04:08;7.50;;;5.50;;
75820;SDS011;64454;51.984;9.838;2024-01-16T13:06:36;9.60;;;5.13;;
75820;SDS011;64454;51.984;9.838;2024-01-16T13:09:06;7.15;;;5.05;;
75820;SDS011;64454;51.984;9.838;2024-01-16T13:11:44;12.00;;;5.80;;
75820;SDS011;64454;51.984;9.838;2024-01-16T13:14:15;7.65;;;4.80;;
75820;SDS011;64454;51.984;9.838;2024-01-16T13:16:41;7.30;;;4.50;;
75820;SDS011;64454;51.984;9.838;2024-01-16T13:19:07;9.70;;;5.00;;
75820;SDS011;64454;51.984;9.838;2024-01-16T13:21:36;8.15;;;4.90;;
75820;SDS011;64454;51.984;9.838;2024-01-16T13:24:03;8.17;;;4.83;;
75820;SDS011;64454;51.984;9.838;2024-01-16T13:26:30;6.28;;;4.57;;
75820;SDS011;64454;51.984;9.838;2024-01-16T13:28:57;9.40;;;5.28;;
75820;SDS011;64454;51.984;9.838;2024-01-16T13:31:23;9.47;;;5.10;;
75820;SDS011;64454;51.984;9.838;2024-01-16T13:33:49;6.82;;;4.20;;
75820;SDS011;64454;51.984;9.838;2024-01-16T13:36:15;7.80;;;4.00;;
75820;SDS011;64454;51.984;9.838;2024-01-16T13:38:42;4.80;;;3.40;;
75820;SDS011;64454;51.984;9.838;2024-01-16T13:41:09;7.32;;;4.00;;
75820;SDS011;64454;51.984;9.838;2024-01-16T13:43:36;10.38;;;4.95;;
75820;SDS011;64454;51.984;9.838;2024-01-16T13:46:03;5.60;;;4.10;;
75820;SDS011;64454;51.984;9.838;2024-01-16T13:48:29;6.25;;;3.90;;
75820;SDS011;64454;51.984;9.838;2024-01-16T13:50:55;8.85;;;3.63;;
75820;SDS011;64454;51.984;9.838;2024-01-16T13:53:21;5.93;;;3.38;;
75820;SDS011;64454;51.984;9.838;2024-01-16T13:55:48;7.40;;;3.53;;
75820;SDS011;64454;51.984;9.838;2024-01-16T13:58:14;8.35;;;3.05;;
75820;SDS011;64454;51.984;9.838;2024-01-16T14:00:41;6.45;;;3.90;;
75820;SDS011;64454;51.984;9.838;2024-01-16T14:03:07;6.35;;;2.80;;
75820;SDS011;64454;51.984;9.838;2024-01-16T14:05:33;6.55;;;3.78;;
75820;SDS011;64454;51.984;9.838;2024-01-16T14:08:01;4.60;;;2.78;;
75820;SDS011;64454;51.984;9.838;2024-01-16T14:10:27;4.75;;;2.85;;
75820;SDS011;64454;51.984;9.838;2024-01-16T14:12:55;10.60;;;3.00;;
75820;SDS011;64454;51.984;9.838;2024-01-16T14:15:21;4.82;;;2.97;;
75820;SDS011;64454;51.984;9.838;2024-01-16T14:17:49;5.82;;;3.15;;
75820;SDS011;64454;51.984;9.838;2024-01-16T14:20:16;4.10;;;2.78;;
75820;SDS011;64454;51.984;9.838;2024-01-16T14:22:47;5.63;;;2.85;;
75820;SDS011;64454;51.984;9.838;2024-01-16T14:25:13;5.03;;;2.65;;
75820;SDS011;64454;51.984;9.838;2024-01-16T14:27:44;7.25;;;2.80;;
75820;SDS011;64454;51.984;9.838;2024-01-16T14:30:13;3.92;;;2.45;;
75820;SDS011;64454;51.984;9.838;2024-01-16T14:32:41;8.18;;;2.40;;
75820;SDS011;64454;51.984;9.838;2024-01-16T14:35:10;7.35;;;2.70;;
75820;SDS011;64454;51.984;9.838;2024-01-16T14:37:42;5.75;;;2.25;;
75820;SDS011;64454;51.984;9.838;2024-01-16T14:40:08;4.15;;;2.20;;
75820;SDS011;64454;51.984;9.838;2024-01-16T14:42:37;8.18;;;2.40;;
75820;SDS011;64454;51.984;9.838;2024-01-16T14:45:04;8.18;;;2.70;;
75820;SDS011;64454;51.984;9.838;2024-01-16T14:47:32;6.78;;;2.30;;
75820;SDS011;64454;51.984;9.838;2024-01-16T14:49:58;4.15;;;1.98;;
75820;SDS011;64454;51.984;9.838;2024-01-16T14:52:25;6.88;;;2.30;;